sensor_id;sensor_type;location;lat;lon;timestamp;temperature;humidity
18717;DHT22;9487;50.892;6.906;2023-03-01T00:01:04;1.80;37.00
18717;DHT22;9487;50.892;6.906;2023-03-01T00:03:33;1.70;40.50
18717;DHT22;9487;50.892;6.906;2023-03-01T00:06:00;1.60;43.60
18717;DHT22;9487;50.892;6.906;2023-03-01T00:08:29;1.50;48.20
18717;DHT22;9487;50.892;6.906;2023-03-01T00:11:01;1.50;51.20
18717;DHT22;9487;50.892;6.906;2023-03-01T00:13:28;1.40;52.30
18717;DHT22;9487;50.892;6.906;2023-03-01T00:15:55;1.10;55.30
18717;DHT22;9487;50.892;6.906;2023-03-01T00:18:22;0.80;70.70
18717;DHT22;9487;50.892;6.906;2023-03-01T00:20:50;0.60;78.60
18717;DHT22;9487;50.892;6.906;2023-03-01T00:23:17;0.50;81.30
18717;DHT22;9487;50.892;6.906;2023-03-01T00:25:46;0.40;81.20
18717;DHT22;9487;50.892;6.906;2023-03-01T00:28:12;0.40;81.40
18717;DHT22;9487;50.892;6.906;2023-03-01T00:30:39;0.50;80.40
18717;DHT22;9487;50.892;6.906;2023-03-01T00:33:06;0.50;76.90
18717;DHT22;9487;50.892;6.906;2023-03-01T00:35:34;0.60;72.40
18717;DHT22;9487;50.892;6.906;2023-03-01T00:38:00;0.60;70.00
18717;DHT22;9487;50.892;6.906;2023-03-01T00:40:28;0.70;67.60
18717;DHT22;9487;50.892;6.906;2023-03-01T00:42:56;0.80;64.90
18717;DHT22;9487;50.892;6.906;2023-03-01T00:45:24;0.80;62.70
18717;DHT22;9487;50.892;6.906;2023-03-01T00:47:51;0.90;60.50
18717;DHT22;9487;50.892;6.906;2023-03-01T00:50:18;0.90;60.80
18717;DHT22;9487;50.892;6.906;2023-03-01T00:52:45;0.90;60.20
18717;DHT22;9487;50.892;6.906;2023-03-01T00:55:12;0.90;60.50
18717;DHT22;9487;50.892;6.906;2023-03-01T00:57:39;0.90;60.70
18717;DHT22;9487;50.892;6.906;2023-03-01T01:00:09;0.90;63.60
18717;DHT22;9487;50.892;6.906;2023-03-01T01:02:37;0.80;63.40
18717;DHT22;9487;50.892;6.906;2023-03-01T01:05:04;0.80;64.70
18717;DHT22;9487;50.892;6.906;2023-03-01T01:07:31;0.70;67.80
18717;DHT22;9487;50.892;6.906;2023-03-01T01:09:58;0.70;66.80
18717;DHT22;9487;50.892;6.906;2023-03-01T01:12:25;0.70;66.60
18717;DHT22;9487;50.892;6.906;2023-03-01T01:14:52;0.80;69.40
18717;DHT22;9487;50.892;6.906;2023-03-01T01:17:20;0.80;69.90
18717;DHT22;9487;50.892;6.906;2023-03-01T01:19:47;0.80;68.40
18717;DHT22;9487;50.892;6.906;2023-03-01T01:22:14;0.80;68.40
18717;DHT22;9487;50.892;6.906;2023-03-01T01:24:40;0.80;68.20
18717;DHT22;9487;50.892;6.906;2023-03-01T01:27:07;0.80;71.10
18717;DHT22;9487;50.892;6.906;2023-03-01T01:29:34;1.10;66.60
18717;DHT22;9487;50.892;6.906;2023-03-01T01:32:01;1.20;64.70
18717;DHT22;9487;50.892;6.906;2023-03-01T01:34:29;1.20;64.70
18717;DHT22;9487;50.892;6.906;2023-03-01T01:36:56;1.20;61.70
18717;DHT22;9487;50.892;6.906;2023-03-01T01:39:23;0.80;71.60
18717;DHT22;9487;50.892;6.906;2023-03-01T01:41:50;0.50;77.40
18717;DHT22;9487;50.892;6.906;2023-03-01T01:44:20;0.50;78.20
18717;DHT22;9487;50.892;6.906;2023-03-01T01:46:49;0.50;78.70
18717;DHT22;9487;50.892;6.906;2023-03-01T01:49:30;0.50;75.00
18717;DHT22;9487;50.892;6.906;2023-03-01T01:52:05;0.50;74.90
18717;DHT22;9487;50.892;6.906;2023-03-01T01:54:40;0.70;75.50
18717;DHT22;9487;50.892;6.906;2023-03-01T01:57:11;0.70;72.50
18717;DHT22;9487;50.892;6.906;2023-03-01T01:59:42;0.70;75.90
18717;DHT22;9487;50.892;6.906;2023-03-01T02:02:10;0.90;75.00
18717;DHT22;9487;50.892;6.906;2023-03-01T02:04:39;0.90;74.60
18717;DHT22;9487;50.892;6.906;2023-03-01T02:07:11;0.90;73.70
18717;DHT22;9487;50.892;6.906;2023-03-01T02:09:42;0.90;75.40
18717;DHT22;9487;50.892;6.906;2023-03-01T02:12:10;0.80;78.70
18717;DHT22;9487;50.892;6.906;2023-03-01T02:14:37;0.60;82.40
18717;DHT22;9487;50.892;6.906;2023-03-01T02:17:04;0.50;86.60
18717;DHT22;9487;50.892;6.906;2023-03-01T02:19:44;0.30;90.20
18717;DHT22;9487;50.892;6.906;2023-03-01T02:22:20;0.20;91.10
18717;DHT22;9487;50.892;6.906;2023-03-01T02:24:57;0.20;92.40
18717;DHT22;9487;50.892;6.906;2023-03-01T02:27:33;0.20;93.10
18717;DHT22;9487;50.892;6.906;2023-03-01T02:30:06;0.10;93.30
18717;DHT22;9487;50.892;6.906;2023-03-01T02:32:33;0.10;93.90
18717;DHT22;9487;50.892;6.906;2023-03-01T02:34:59;0.10;93.80
18717;DHT22;9487;50.892;6.906;2023-03-01T02:37:27;0.10;94.70
18717;DHT22;9487;50.892;6.906;2023-03-01T02:39:58;0.20;93.60
18717;DHT22;9487;50.892;6.906;2023-03-01T02:42:28;0.20;92.20
18717;DHT22;9487;50.892;6.906;2023-03-01T02:44:57;0.10;88.90
18717;DHT22;9487;50.892;6.906;2023-03-01T02:47:25;0.20;93.00
18717;DHT22;9487;50.892;6.906;2023-03-01T02:49:52;0.20;92.40
18717;DHT22;9487;50.892;6.906;2023-03-01T02:52:36;0.20;92.30
18717;DHT22;9487;50.892;6.906;2023-03-01T02:55:08;0.10;93.20
18717;DHT22;9487;50.892;6.906;2023-03-01T02:57:39;0.10;93.70
18717;DHT22;9487;50.892;6.906;2023-03-01T03:00:09;0.10;93.50
18717;DHT22;9487;50.892;6.906;2023-03-01T03:02:46;0.00;94.10
18717;DHT22;9487;50.892;6.906;2023-03-01T03:05:16;-0.10;95.50
18717;DHT22;9487;50.892;6.906;2023-03-01T03:07:44;-0.30;96.60
18717;DHT22;9487;50.892;6.906;2023-03-01T03:10:14;-0.30;98.20
18717;DHT22;9487;50.892;6.906;2023-03-01T03:12:41;-0.30;99.30
18717;DHT22;9487;50.892;6.906;2023-03-01T03:15:10;-0.30;98.90
18717;DHT22;9487;50.892;6.906;2023-03-01T03:17:39;-0.30;99.00
18717;DHT22;9487;50.892;6.906;2023-03-01T03:20:09;-0.30;98.10
18717;DHT22;9487;50.892;6.906;2023-03-01T03:22:37;-0.40;98.60
18717;DHT22;9487;50.892;6.906;2023-03-01T03:25:05;-0.50;99.90
18717;DHT22;9487;50.892;6.906;2023-03-01T03:27:35;-0.50;99.90
18717;DHT22;9487;50.892;6.906;2023-03-01T03:30:03;-0.50;99.90
18717;DHT22;9487;50.892;6.906;2023-03-01T03:32:34;-0.50;99.90
18717;DHT22;9487;50.892;6.906;2023-03-01T03:35:01;-0.50;99.90
18717;DHT22;9487;50.892;6.906;2023-03-01T03:37:30;-0.60;99.90
18717;DHT22;9487;50.892;6.906;2023-03-01T03:40:14;-0.60;99.90
18717;DHT22;9487;50.892;6.906;2023-03-01T03:42:41;-0.60;99.90
18717;DHT22;9487;50.892;6.906;2023-03-01T03:45:08;-0.60;99.90
18717;DHT22;9487;50.892;6.906;2023-03-01T03:47:35;-0.60;99.90
18717;DHT22;9487;50.892;6.906;2023-03-01T03:50:02;-0.70;99.90
18717;DHT22;9487;50.892;6.906;2023-03-01T03:52:30;-1.00;99.90
18717;DHT22;9487;50.892;6.906;2023-03-01T03:54:56;-1.10;99.90
18717;DHT22;9487;50.892;6.906;2023-03-01T03:57:23;-1.20;99.90
18717;DHT22;9487;50.892;6.906;2023-03-01T03:59:50;-1.20;99.90
18717;DHT22;9487;50.892;6.906;2023-03-01T04:02:17;-1.30;99.90
18717;DHT22;9487;50.892;6.906;2023-03-01T04:04:47;-1.20;99.90
18717;DHT22;9487;50.892;6.906;2023-03-01T04:07:15;-1.00;99.90
18717;DHT22;9487;50.892;6.906;2023-03-01T04:09:43;-1.20;99.90
18717;DHT22;9487;50.892;6.906;2023-03-01T04:12:10;-1.20;99.90
18717;DHT22;9487;50.892;6.906;2023-03-01T04:14:37;-1.30;99.90
18717;DHT22;9487;50.892;6.906;2023-03-01T04:17:04;-1.30;99.90
18717;DHT22;9487;50.892;6.906;2023-03-01T04:19:31;-1.10;99.90
18717;DHT22;9487;50.892;6.906;2023-03-01T04:22:01;-0.80;99.90
18717;DHT22;9487;50.892;6.906;2023-03-01T04:24:33;-0.80;99.90
18717;DHT22;9487;50.892;6.906;2023-03-01T04:27:01;-0.80;99.90
18717;DHT22;9487;50.892;6.906;2023-03-01T04:29:28;-0.90;99.90
18717;DHT22;9487;50.892;6.906;2023-03-01T04:31:55;-0.70;99.90
18717;DHT22;9487;50.892;6.906;2023-03-01T04:34:21;-0.60;99.90
18717;DHT22;9487;50.892;6.906;2023-03-01T04:36:48;-0.60;99.90
18717;DHT22;9487;50.892;6.906;2023-03-01T04:39:15;-0.60;99.90
18717;DHT22;9487;50.892;6.906;2023-03-01T04:41:45;-0.70;99.90
18717;DHT22;9487;50.892;6.906;2023-03-01T04:44:13;-0.70;99.90
18717;DHT22;9487;50.892;6.906;2023-03-01T04:46:40;-0.70;99.90
18717;DHT22;9487;50.892;6.906;2023-03-01T04:49:06;-0.70;99.90
18717;DHT22;9487;50.892;6.906;2023-03-01T04:51:33;-0.80;99.90
18717;DHT22;9487;50.892;6.906;2023-03-01T04:54:00;-0.80;99.90
18717;DHT22;9487;50.892;6.906;2023-03-01T04:56:27;-0.90;99.90
18717;DHT22;9487;50.892;6.906;2023-03-01T04:58:54;-0.90;99.90
18717;DHT22;9487;50.892;6.906;2023-03-01T05:01:22;-1.00;99.90
18717;DHT22;9487;50.892;6.906;2023-03-01T05:03:50;-1.00;99.90
18717;DHT22;9487;50.892;6.906;2023-03-01T05:06:18;-1.00;99.90
18717;DHT22;9487;50.892;6.906;2023-03-01T05:08:45;-0.90;99.90
18717;DHT22;9487;50.892;6.906;2023-03-01T05:11:12;-0.90;99.90
18717;DHT22;9487;50.892;6.906;2023-03-01T05:13:40;-0.90;99.90
18717;DHT22;9487;50.892;6.906;2023-03-01T05:16:08;-0.80;99.90
18717;DHT22;9487;50.892;6.906;2023-03-01T05:18:38;-0.90;99.90
18717;DHT22;9487;50.892;6.906;2023-03-01T05:21:06;-0.90;99.90
18717;DHT22;9487;50.892;6.906;2023-03-01T05:23:34;-0.90;99.90
18717;DHT22;9487;50.892;6.906;2023-03-01T05:26:05;-0.90;99.90
18717;DHT22;9487;50.892;6.906;2023-03-01T05:28:34;-0.80;99.90
18717;DHT22;9487;50.892;6.906;2023-03-01T05:31:03;-0.80;99.90
18717;DHT22;9487;50.892;6.906;2023-03-01T05:33:36;-0.80;99.90
18717;DHT22;9487;50.892;6.906;2023-03-01T05:36:04;-0.80;99.90
18717;DHT22;9487;50.892;6.906;2023-03-01T05:38:31;-0.80;99.90
18717;DHT22;9487;50.892;6.906;2023-03-01T05:40:58;-0.70;99.90
18717;DHT22;9487;50.892;6.906;2023-03-01T05:43:25;-0.80;99.90
18717;DHT22;9487;50.892;6.906;2023-03-01T05:45:51;-0.80;99.90
18717;DHT22;9487;50.892;6.906;2023-03-01T05:48:18;-0.80;99.90
18717;DHT22;9487;50.892;6.906;2023-03-01T05:50:47;-0.90;99.90
18717;DHT22;9487;50.892;6.906;2023-03-01T05:53:16;-0.90;99.90
18717;DHT22;9487;50.892;6.906;2023-03-01T05:55:45;-0.90;99.90
18717;DHT22;9487;50.892;6.906;2023-03-01T05:58:15;-0.90;99.90
18717;DHT22;9487;50.892;6.906;2023-03-01T06:00:43;-1.10;99.90
18717;DHT22;9487;50.892;6.906;2023-03-01T06:03:12;-1.00;99.90
18717;DHT22;9487;50.892;6.906;2023-03-01T06:05:40;-0.90;99.90
18717;DHT22;9487;50.892;6.906;2023-03-01T06:08:09;-0.90;99.90
18717;DHT22;9487;50.892;6.906;2023-03-01T06:10:36;-0.90;99.90
18717;DHT22;9487;50.892;6.906;2023-03-01T06:13:03;-1.00;99.90
18717;DHT22;9487;50.892;6.906;2023-03-01T06:15:30;-1.10;99.90
18717;DHT22;9487;50.892;6.906;2023-03-01T06:17:57;-1.10;99.90
18717;DHT22;9487;50.892;6.906;2023-03-01T06:20:25;-1.20;99.90
18717;DHT22;9487;50.892;6.906;2023-03-01T06:22:53;-1.20;99.90
18717;DHT22;9487;50.892;6.906;2023-03-01T06:25:23;-1.20;99.90
18717;DHT22;9487;50.892;6.906;2023-03-01T06:27:50;-1.20;99.90
18717;DHT22;9487;50.892;6.906;2023-03-01T06:30:20;-1.20;99.90
18717;DHT22;9487;50.892;6.906;2023-03-01T06:32:47;-1.20;99.90
18717;DHT22;9487;50.892;6.906;2023-03-01T06:35:15;-1.40;99.90
18717;DHT22;9487;50.892;6.906;2023-03-01T06:37:44;-1.50;99.90
18717;DHT22;9487;50.892;6.906;2023-03-01T06:40:11;-1.60;99.90
18717;DHT22;9487;50.892;6.906;2023-03-01T06:42:42;-1.60;99.90
18717;DHT22;9487;50.892;6.906;2023-03-01T06:45:10;-1.70;99.90
18717;DHT22;9487;50.892;6.906;2023-03-01T06:47:37;-1.70;99.90
18717;DHT22;9487;50.892;6.906;2023-03-01T06:50:04;-1.80;99.90
18717;DHT22;9487;50.892;6.906;2023-03-01T06:52:31;-1.80;99.90
18717;DHT22;9487;50.892;6.906;2023-03-01T06:54:59;-1.70;99.90
18717;DHT22;9487;50.892;6.906;2023-03-01T06:57:26;-1.70;99.90
18717;DHT22;9487;50.892;6.906;2023-03-01T06:59:54;-1.50;99.90
18717;DHT22;9487;50.892;6.906;2023-03-01T07:02:21;-1.20;99.90
18717;DHT22;9487;50.892;6.906;2023-03-01T07:04:49;-1.00;99.90
18717;DHT22;9487;50.892;6.906;2023-03-01T07:07:16;-0.90;99.90
18717;DHT22;9487;50.892;6.906;2023-03-01T07:09:43;-0.70;99.90
18717;DHT22;9487;50.892;6.906;2023-03-01T07:12:10;-0.60;99.90
18717;DHT22;9487;50.892;6.906;2023-03-01T07:14:37;-0.50;99.90
18717;DHT22;9487;50.892;6.906;2023-03-01T07:17:05;-0.40;99.90
18717;DHT22;9487;50.892;6.906;2023-03-01T07:19:32;-0.40;99.90
18717;DHT22;9487;50.892;6.906;2023-03-01T07:21:58;-0.30;99.90
18717;DHT22;9487;50.892;6.906;2023-03-01T07:24:25;-0.30;99.90
18717;DHT22;9487;50.892;6.906;2023-03-01T07:26:52;-0.30;99.90
18717;DHT22;9487;50.892;6.906;2023-03-01T07:29:20;-0.30;99.90
18717;DHT22;9487;50.892;6.906;2023-03-01T07:31:46;-0.20;99.90
18717;DHT22;9487;50.892;6.906;2023-03-01T07:34:14;-0.10;99.90
18717;DHT22;9487;50.892;6.906;2023-03-01T07:36:42;0.00;99.90
18717;DHT22;9487;50.892;6.906;2023-03-01T07:39:11;0.10;99.90
18717;DHT22;9487;50.892;6.906;2023-03-01T07:41:37;0.10;99.10
18717;DHT22;9487;50.892;6.906;2023-03-01T07:44:05;0.20;98.50
18717;DHT22;9487;50.892;6.906;2023-03-01T07:46:32;0.30;99.00
18717;DHT22;9487;50.892;6.906;2023-03-01T07:48:59;0.50;97.00
18717;DHT22;9487;50.892;6.906;2023-03-01T07:51:27;0.60;95.30
18717;DHT22;9487;50.892;6.906;2023-03-01T07:53:54;0.70;94.00
18717;DHT22;9487;50.892;6.906;2023-03-01T07:56:20;0.70;92.90
18717;DHT22;9487;50.892;6.906;2023-03-01T07:58:47;0.60;93.30
18717;DHT22;9487;50.892;6.906;2023-03-01T08:01:16;0.60;93.90
18717;DHT22;9487;50.892;6.906;2023-03-01T08:03:43;0.60;93.70
18717;DHT22;9487;50.892;6.906;2023-03-01T08:06:11;0.70;94.30
18717;DHT22;9487;50.892;6.906;2023-03-01T08:08:40;0.80;94.00
18717;DHT22;9487;50.892;6.906;2023-03-01T08:11:09;0.90;93.40
18717;DHT22;9487;50.892;6.906;2023-03-01T08:13:36;1.00;94.60
18717;DHT22;9487;50.892;6.906;2023-03-01T08:16:04;1.20;89.70
18717;DHT22;9487;50.892;6.906;2023-03-01T08:18:31;1.40;87.00
18717;DHT22;9487;50.892;6.906;2023-03-01T08:21:01;1.50;83.70
18717;DHT22;9487;50.892;6.906;2023-03-01T08:23:28;1.60;81.50
18717;DHT22;9487;50.892;6.906;2023-03-01T08:26:05;1.60;77.00
18717;DHT22;9487;50.892;6.906;2023-03-01T08:28:32;1.50;59.10
18717;DHT22;9487;50.892;6.906;2023-03-01T08:30:59;1.50;53.60
18717;DHT22;9487;50.892;6.906;2023-03-01T08:33:26;1.40;54.50
18717;DHT22;9487;50.892;6.906;2023-03-01T08:36:01;1.70;52.00
18717;DHT22;9487;50.892;6.906;2023-03-01T08:38:28;1.70;45.10
18717;DHT22;9487;50.892;6.906;2023-03-01T08:40:55;1.60;44.00
18717;DHT22;9487;50.892;6.906;2023-03-01T08:43:23;1.90;45.00
18717;DHT22;9487;50.892;6.906;2023-03-01T08:45:50;2.30;37.10
18717;DHT22;9487;50.892;6.906;2023-03-01T08:48:16;2.20;31.90
18717;DHT22;9487;50.892;6.906;2023-03-01T08:50:43;2.10;33.40
18717;DHT22;9487;50.892;6.906;2023-03-01T08:53:10;2.50;26.20
18717;DHT22;9487;50.892;6.906;2023-03-01T08:55:37;2.70;26.30
18717;DHT22;9487;50.892;6.906;2023-03-01T08:58:04;2.90;11.30
18717;DHT22;9487;50.892;6.906;2023-03-01T09:00:32;2.50;19.70
18717;DHT22;9487;50.892;6.906;2023-03-01T09:03:00;2.30;27.20
18717;DHT22;9487;50.892;6.906;2023-03-01T09:05:26;2.30;29.90
18717;DHT22;9487;50.892;6.906;2023-03-01T09:07:53;2.50;29.40
18717;DHT22;9487;50.892;6.906;2023-03-01T09:10:20;2.50;23.80
18717;DHT22;9487;50.892;6.906;2023-03-01T09:12:47;2.50;27.70
18717;DHT22;9487;50.892;6.906;2023-03-01T09:15:14;2.90;27.50
18717;DHT22;9487;50.892;6.906;2023-03-01T09:17:42;3.30;34.20
18717;DHT22;9487;50.892;6.906;2023-03-01T09:20:10;3.40;10.00
18717;DHT22;9487;50.892;6.906;2023-03-01T09:22:37;3.70;19.60
18717;DHT22;9487;50.892;6.906;2023-03-01T09:25:04;4.00;1.00
18717;DHT22;9487;50.892;6.906;2023-03-01T09:27:31;4.30;1.00
18717;DHT22;9487;50.892;6.906;2023-03-01T09:29:58;4.50;1.00
18717;DHT22;9487;50.892;6.906;2023-03-01T09:32:25;4.60;1.00
18717;DHT22;9487;50.892;6.906;2023-03-01T09:34:53;4.60;1.00
18717;DHT22;9487;50.892;6.906;2023-03-01T09:37:30;4.50;1.00
18717;DHT22;9487;50.892;6.906;2023-03-01T09:39:58;4.60;1.00
18717;DHT22;9487;50.892;6.906;2023-03-01T09:42:25;4.70;1.00
18717;DHT22;9487;50.892;6.906;2023-03-01T09:44:56;4.80;1.00
18717;DHT22;9487;50.892;6.906;2023-03-01T09:47:27;4.80;1.00
18717;DHT22;9487;50.892;6.906;2023-03-01T09:50:02;4.40;1.00
18717;DHT22;9487;50.892;6.906;2023-03-01T09:52:36;4.50;1.00
18717;DHT22;9487;50.892;6.906;2023-03-01T09:55:10;4.70;1.00
18717;DHT22;9487;50.892;6.906;2023-03-01T09:57:43;4.40;1.00
18717;DHT22;9487;50.892;6.906;2023-03-01T10:00:31;4.50;1.00
18717;DHT22;9487;50.892;6.906;2023-03-01T10:03:07;4.80;1.00
18717;DHT22;9487;50.892;6.906;2023-03-01T10:05:44;4.70;1.00
18717;DHT22;9487;50.892;6.906;2023-03-01T10:08:27;4.60;1.00
18717;DHT22;9487;50.892;6.906;2023-03-01T10:10:56;4.80;1.00
18717;DHT22;9487;50.892;6.906;2023-03-01T10:13:27;4.60;1.00
18717;DHT22;9487;50.892;6.906;2023-03-01T10:15:58;4.80;1.00
18717;DHT22;9487;50.892;6.906;2023-03-01T10:18:30;4.80;1.00
18717;DHT22;9487;50.892;6.906;2023-03-01T10:21:13;5.00;1.00
18717;DHT22;9487;50.892;6.906;2023-03-01T10:23:41;5.20;1.00
18717;DHT22;9487;50.892;6.906;2023-03-01T10:26:17;5.50;1.00
18717;DHT22;9487;50.892;6.906;2023-03-01T10:28:55;5.50;1.00
18717;DHT22;9487;50.892;6.906;2023-03-01T10:31:25;5.10;1.00
18717;DHT22;9487;50.892;6.906;2023-03-01T10:33:55;5.00;1.00
18717;DHT22;9487;50.892;6.906;2023-03-01T10:36:24;4.70;1.00
18717;DHT22;9487;50.892;6.906;2023-03-01T10:38:52;4.70;1.00
18717;DHT22;9487;50.892;6.906;2023-03-01T10:41:20;5.00;1.00
18717;DHT22;9487;50.892;6.906;2023-03-01T10:43:51;5.00;1.00
18717;DHT22;9487;50.892;6.906;2023-03-01T10:46:26;4.90;1.00
18717;DHT22;9487;50.892;6.906;2023-03-01T10:49:15;5.30;1.00
18717;DHT22;9487;50.892;6.906;2023-03-01T10:51:46;5.50;1.00
18717;DHT22;9487;50.892;6.906;2023-03-01T10:54:18;5.90;1.00
18717;DHT22;9487;50.892;6.906;2023-03-01T10:56:50;5.70;1.00
18717;DHT22;9487;50.892;6.906;2023-03-01T10:59:29;5.50;1.00
18717;DHT22;9487;50.892;6.906;2023-03-01T11:02:12;5.70;1.00
18717;DHT22;9487;50.892;6.906;2023-03-01T11:04:56;5.90;1.00
18717;DHT22;9487;50.892;6.906;2023-03-01T11:07:25;6.20;1.00
18717;DHT22;9487;50.892;6.906;2023-03-01T11:09:52;6.10;1.00
18717;DHT22;9487;50.892;6.906;2023-03-01T11:12:21;6.40;1.00
18717;DHT22;9487;50.892;6.906;2023-03-01T11:14:49;7.00;1.00
18717;DHT22;9487;50.892;6.906;2023-03-01T11:17:21;6.80;1.00
18717;DHT22;9487;50.892;6.906;2023-03-01T11:20:00;6.40;1.00
18717;DHT22;9487;50.892;6.906;2023-03-01T11:22:31;5.80;1.00
18717;DHT22;9487;50.892;6.906;2023-03-01T11:24:59;5.50;1.00
18717;DHT22;9487;50.892;6.906;2023-03-01T11:27:30;5.50;1.00
18717;DHT22;9487;50.892;6.906;2023-03-01T11:29:59;5.50;1.00
18717;DHT22;9487;50.892;6.906;2023-03-01T11:32:31;5.60;1.00
18717;DHT22;9487;50.892;6.906;2023-03-01T11:35:03;5.60;1.00
18717;DHT22;9487;50.892;6.906;2023-03-01T11:37:40;5.70;1.00
18717;DHT22;9487;50.892;6.906;2023-03-01T11:40:13;5.80;1.00
18717;DHT22;9487;50.892;6.906;2023-03-01T11:43:00;5.60;1.00
18717;DHT22;9487;50.892;6.906;2023-03-01T11:45:39;5.80;1.00
18717;DHT22;9487;50.892;6.906;2023-03-01T11:48:24;5.60;1.00
18717;DHT22;9487;50.892;6.906;2023-03-01T11:50:55;5.60;1.00
18717;DHT22;9487;50.892;6.906;2023-03-01T11:53:34;5.60;1.00
18717;DHT22;9487;50.892;6.906;2023-03-01T11:56:11;5.80;1.00
18717;DHT22;9487;50.892;6.906;2023-03-01T11:59:02;6.20;1.00
18717;DHT22;9487;50.892;6.906;2023-03-01T12:01:44;6.20;1.00
18717;DHT22;9487;50.892;6.906;2023-03-01T12:04:50;6.00;1.00
18717;DHT22;9487;50.892;6.906;2023-03-01T12:07:25;5.90;1.00
18717;DHT22;9487;50.892;6.906;2023-03-01T12:10:19;5.90;1.00
18717;DHT22;9487;50.892;6.906;2023-03-01T12:13:10;5.80;1.00
18717;DHT22;9487;50.892;6.906;2023-03-01T12:15:53;6.00;1.00
18717;DHT22;9487;50.892;6.906;2023-03-01T12:18:45;6.30;1.00
18717;DHT22;9487;50.892;6.906;2023-03-01T12:21:23;6.60;1.00
18717;DHT22;9487;50.892;6.906;2023-03-01T12:27:02;6.20;99.90
18717;DHT22;9487;50.892;6.906;2023-03-01T12:29:35;6.10;1.00
18717;DHT22;9487;50.892;6.906;2023-03-01T12:32:22;6.20;1.00
18717;DHT22;9487;50.892;6.906;2023-03-01T12:35:19;6.50;1.00
18717;DHT22;9487;50.892;6.906;2023-03-01T12:37:54;6.60;1.00
18717;DHT22;9487;50.892;6.906;2023-03-01T12:40:51;6.60;1.00
18717;DHT22;9487;50.892;6.906;2023-03-01T12:43:32;6.50;1.00
18717;DHT22;9487;50.892;6.906;2023-03-01T12:46:21;6.40;1.00
18717;DHT22;9487;50.892;6.906;2023-03-01T12:48:59;6.40;1.00
18717;DHT22;9487;50.892;6.906;2023-03-01T12:51:31;6.50;1.00
18717;DHT22;9487;50.892;6.906;2023-03-01T12:54:05;6.50;1.00
18717;DHT22;9487;50.892;6.906;2023-03-01T12:56:35;6.80;1.00
18717;DHT22;9487;50.892;6.906;2023-03-01T12:59:12;6.70;1.00
18717;DHT22;9487;50.892;6.906;2023-03-01T13:01:49;6.80;1.00
18717;DHT22;9487;50.892;6.906;2023-03-01T13:04:29;6.90;99.90
18717;DHT22;9487;50.892;6.906;2023-03-01T13:07:10;6.80;99.90
18717;DHT22;9487;50.892;6.906;2023-03-01T13:09:40;6.90;99.90
18717;DHT22;9487;50.892;6.906;2023-03-01T13:12:42;6.80;99.90
18717;DHT22;9487;50.892;6.906;2023-03-01T13:15:26;6.80;99.90
18717;DHT22;9487;50.892;6.906;2023-03-01T13:17:55;7.00;99.90
18717;DHT22;9487;50.892;6.906;2023-03-01T13:20:25;7.20;99.90
18717;DHT22;9487;50.892;6.906;2023-03-01T13:23:03;7.40;99.90
18717;DHT22;9487;50.892;6.906;2023-03-01T13:25:30;7.60;99.90
18717;DHT22;9487;50.892;6.906;2023-03-01T13:31:01;7.20;99.90
18717;DHT22;9487;50.892;6.906;2023-03-01T13:33:43;7.20;99.90
18717;DHT22;9487;50.892;6.906;2023-03-01T13:36:13;7.20;99.90
18717;DHT22;9487;50.892;6.906;2023-03-01T13:39:00;7.30;99.90
18717;DHT22;9487;50.892;6.906;2023-03-01T13:41:49;7.30;99.90
18717;DHT22;9487;50.892;6.906;2023-03-01T13:44:30;7.40;99.90
18717;DHT22;9487;50.892;6.906;2023-03-01T13:47:06;7.60;99.90
18717;DHT22;9487;50.892;6.906;2023-03-01T13:49:42;7.70;99.90
18717;DHT22;9487;50.892;6.906;2023-03-01T13:52:35;7.60;95.40
18717;DHT22;9487;50.892;6.906;2023-03-01T13:55:04;7.70;1.00
18717;DHT22;9487;50.892;6.906;2023-03-01T13:57:34;7.70;1.00
18717;DHT22;9487;50.892;6.906;2023-03-01T14:00:03;7.60;1.00
18717;DHT22;9487;50.892;6.906;2023-03-01T14:02:32;7.70;1.00
18717;DHT22;9487;50.892;6.906;2023-03-01T14:05:00;7.70;1.00
18717;DHT22;9487;50.892;6.906;2023-03-01T14:07:28;7.70;1.00
18717;DHT22;9487;50.892;6.906;2023-03-01T14:09:58;7.70;1.00
18717;DHT22;9487;50.892;6.906;2023-03-01T14:12:33;7.80;1.00
18717;DHT22;9487;50.892;6.906;2023-03-01T14:15:09;7.90;1.00
18717;DHT22;9487;50.892;6.906;2023-03-01T14:17:52;8.00;1.00
18717;DHT22;9487;50.892;6.906;2023-03-01T14:20:23;8.10;1.00
18717;DHT22;9487;50.892;6.906;2023-03-01T14:22:53;8.00;1.00
18717;DHT22;9487;50.892;6.906;2023-03-01T14:25:24;8.10;1.00
18717;DHT22;9487;50.892;6.906;2023-03-01T14:27:55;8.20;1.00
18717;DHT22;9487;50.892;6.906;2023-03-01T14:30:24;8.30;1.00
18717;DHT22;9487;50.892;6.906;2023-03-01T14:32:54;8.20;1.00
18717;DHT22;9487;50.892;6.906;2023-03-01T14:35:23;8.30;1.00
18717;DHT22;9487;50.892;6.906;2023-03-01T14:37:50;8.30;1.00
18717;DHT22;9487;50.892;6.906;2023-03-01T14:40:23;8.40;1.00
18717;DHT22;9487;50.892;6.906;2023-03-01T14:42:51;8.30;99.90
18717;DHT22;9487;50.892;6.906;2023-03-01T14:45:18;8.30;99.90
18717;DHT22;9487;50.892;6.906;2023-03-01T14:47:45;8.30;99.90
18717;DHT22;9487;50.892;6.906;2023-03-01T14:50:21;8.50;1.00
18717;DHT22;9487;50.892;6.906;2023-03-01T14:52:54;8.70;99.90
18717;DHT22;9487;50.892;6.906;2023-03-01T14:55:25;8.70;99.90
18717;DHT22;9487;50.892;6.906;2023-03-01T14:57:53;8.60;99.90
18717;DHT22;9487;50.892;6.906;2023-03-01T15:00:22;8.50;99.90
18717;DHT22;9487;50.892;6.906;2023-03-01T15:02:51;8.40;1.00
18717;DHT22;9487;50.892;6.906;2023-03-01T15:05:25;8.50;1.00
18717;DHT22;9487;50.892;6.906;2023-03-01T15:07:53;8.60;1.00
18717;DHT22;9487;50.892;6.906;2023-03-01T15:10:22;8.60;1.00
18717;DHT22;9487;50.892;6.906;2023-03-01T15:12:49;8.60;1.00
18717;DHT22;9487;50.892;6.906;2023-03-01T15:15:33;8.50;99.90
18717;DHT22;9487;50.892;6.906;2023-03-01T15:18:01;8.50;99.90
18717;DHT22;9487;50.892;6.906;2023-03-01T15:20:31;8.40;99.90
18717;DHT22;9487;50.892;6.906;2023-03-01T15:23:02;8.30;99.90
18717;DHT22;9487;50.892;6.906;2023-03-01T15:25:30;8.10;1.00
18717;DHT22;9487;50.892;6.906;2023-03-01T15:27:59;8.20;1.00
18717;DHT22;9487;50.892;6.906;2023-03-01T15:30:29;8.30;1.00
18717;DHT22;9487;50.892;6.906;2023-03-01T15:33:20;8.40;1.00
18717;DHT22;9487;50.892;6.906;2023-03-01T15:35:48;8.40;1.00
18717;DHT22;9487;50.892;6.906;2023-03-01T15:38:27;8.30;1.00
18717;DHT22;9487;50.892;6.906;2023-03-01T15:40:54;8.30;1.00
18717;DHT22;9487;50.892;6.906;2023-03-01T15:43:44;8.30;1.00
18717;DHT22;9487;50.892;6.906;2023-03-01T15:46:27;8.20;1.00
18717;DHT22;9487;50.892;6.906;2023-03-01T15:48:56;8.10;1.00
18717;DHT22;9487;50.892;6.906;2023-03-01T15:51:31;8.20;1.00
18717;DHT22;9487;50.892;6.906;2023-03-01T15:54:00;8.10;1.00
18717;DHT22;9487;50.892;6.906;2023-03-01T15:56:27;8.20;1.00
18717;DHT22;9487;50.892;6.906;2023-03-01T15:58:58;8.20;1.00
18717;DHT22;9487;50.892;6.906;2023-03-01T16:01:26;8.20;1.00
18717;DHT22;9487;50.892;6.906;2023-03-01T16:03:53;8.00;1.00
18717;DHT22;9487;50.892;6.906;2023-03-01T16:06:20;8.20;1.00
18717;DHT22;9487;50.892;6.906;2023-03-01T16:08:48;8.10;1.00
18717;DHT22;9487;50.892;6.906;2023-03-01T16:11:17;8.00;1.00
18717;DHT22;9487;50.892;6.906;2023-03-01T16:13:45;8.00;1.00
18717;DHT22;9487;50.892;6.906;2023-03-01T16:16:13;8.20;1.00
18717;DHT22;9487;50.892;6.906;2023-03-01T16:18:42;8.10;1.00
18717;DHT22;9487;50.892;6.906;2023-03-01T16:21:14;8.10;1.00
18717;DHT22;9487;50.892;6.906;2023-03-01T16:23:43;8.10;1.00
18717;DHT22;9487;50.892;6.906;2023-03-01T16:26:12;8.20;1.00
18717;DHT22;9487;50.892;6.906;2023-03-01T16:28:40;8.00;1.00
18717;DHT22;9487;50.892;6.906;2023-03-01T16:31:07;8.10;1.00